createdAt,value
2023-05-06T00:00:53.184Z,83.76
2023-05-06T00:01:53.607Z,83.86
2023-05-06T00:02:53.930Z,83.96
2023-05-06T00:03:54.217Z,84.06
2023-05-06T00:04:54.506Z,84.17
2023-05-06T00:05:54.606Z,84.06
2023-05-06T00:06:54.952Z,84.00
2023-05-06T00:07:55.239Z,84.20
2023-05-06T00:08:55.453Z,84.41
2023-05-06T00:09:55.809Z,84.51
2023-05-06T00:10:55.993Z,84.75
2023-05-06T00:11:56.247Z,84.65
2023-05-06T00:12:56.513Z,84.55
2023-05-06T00:13:56.768Z,84.85
2023-05-06T00:14:57.125Z,85.05
2023-05-06T00:15:57.456Z,85.05
2023-05-06T00:16:57.677Z,85.46
2023-05-06T00:17:58.043Z,85.66
2023-05-06T00:18:58.273Z,85.76
2023-05-06T00:19:58.639Z,85.36
2023-05-06T00:20:58.953Z,85.16
2023-05-06T00:21:59.174Z,85.16
2023-05-06T00:22:59.560Z,85.05
2023-05-06T00:23:59.933Z,85.39
2023-05-06T00:25:00.085Z,85.30
2023-05-06T00:26:00.285Z,85.30
2023-05-06T00:27:00.574Z,85.39
2023-05-06T00:28:00.946Z,85.60
2023-05-06T00:29:01.434Z,84.89
2023-05-06T00:30:01.598Z,84.99
2023-05-06T00:31:01.787Z,85.39
2023-05-06T00:32:02.052Z,85.19
2023-05-06T00:33:02.304Z,84.85
2023-05-06T00:34:02.613Z,84.75
2023-05-06T00:35:02.865Z,84.65
2023-05-06T00:36:03.137Z,84.55
2023-05-06T00:37:04.325Z,84.25
2023-05-06T00:38:03.678Z,84.25
2023-05-06T00:39:03.894Z,84.34
2023-05-06T00:40:04.217Z,84.14
2023-05-06T00:41:04.613Z,84.00
2023-05-06T00:42:04.786Z,83.80
2023-05-06T00:43:05.071Z,83.40
2023-05-06T00:44:05.426Z,83.19
2023-05-06T00:45:05.665Z,83.40
2023-05-06T00:46:05.910Z,83.40
2023-05-06T00:47:06.299Z,83.44
2023-05-06T00:48:06.463Z,83.64
2023-05-06T00:49:06.738Z,83.70
2023-05-06T00:50:07.069Z,83.50
2023-05-06T00:51:07.220Z,83.19
2023-05-06T00:52:07.501Z,82.79
2023-05-06T00:53:07.798Z,82.59
2023-05-06T00:54:08.216Z,82.18
2023-05-06T00:55:08.552Z,82.39
2023-05-06T00:56:08.738Z,82.49
2023-05-06T00:57:08.964Z,82.73
2023-05-06T00:58:09.240Z,83.03
2023-05-06T00:59:09.678Z,83.23
2023-05-06T01:00:09.867Z,83.03
2023-05-06T01:01:10.308Z,82.73
2023-05-06T01:02:10.540Z,82.93
2023-05-06T01:03:10.862Z,82.83
2023-05-06T01:04:11.157Z,82.59
2023-05-06T01:05:11.749Z,82.39
2023-05-06T01:06:11.856Z,82.28
2023-05-06T01:07:12.009Z,82.32
2023-05-06T01:08:12.230Z,82.53
2023-05-06T01:09:12.493Z,82.73
2023-05-06T01:10:12.852Z,82.73
2023-05-06T01:11:15.618Z,82.73
2023-05-06T01:12:13.392Z,82.42
2023-05-06T01:13:13.721Z,82.39
2023-05-06T01:14:15.043Z,82.28
2023-05-06T01:15:14.191Z,82.32
2023-05-06T01:16:14.513Z,82.12
2023-05-06T01:17:14.931Z,82.22
2023-05-06T01:18:15.063Z,82.73
2023-05-06T01:19:15.238Z,83.33
2023-05-06T01:20:15.581Z,83.84
2023-05-06T01:21:15.895Z,84.04
2023-05-06T01:22:16.206Z,84.14
2023-05-06T01:23:16.511Z,84.25
2023-05-06T01:24:16.807Z,84.59
2023-05-06T01:25:17.034Z,84.89
2023-05-06T01:26:17.384Z,85.80
2023-05-06T01:27:17.761Z,86.10
2023-05-06T01:28:17.965Z,86.55
2023-05-06T01:29:18.223Z,86.85
2023-05-06T01:30:18.570Z,87.26
2023-05-06T01:31:18.809Z,87.56
2023-05-06T01:32:19.215Z,87.66
2023-05-06T01:33:19.349Z,88.21
2023-05-06T01:34:19.642Z,88.42
2023-05-06T01:35:19.858Z,88.42
2023-05-06T01:36:20.261Z,88.51
2023-05-06T01:37:20.487Z,88.72
2023-05-06T01:38:20.746Z,88.72
2023-05-06T01:39:21.032Z,88.92
2023-05-06T01:40:21.398Z,88.92
2023-05-06T01:41:21.729Z,89.06
2023-05-06T01:42:21.939Z,89.12
2023-05-06T01:43:22.258Z,89.23
2023-05-06T01:44:22.522Z,89.23
2023-05-06T01:45:22.874Z,89.32
2023-05-06T01:46:23.192Z,89.32
2023-05-06T01:47:23.432Z,89.47
2023-05-06T01:48:23.785Z,89.57
2023-05-06T01:49:23.933Z,89.67
2023-05-06T01:50:24.214Z,89.57
2023-05-06T01:51:24.528Z,89.67
2023-05-06T01:52:24.833Z,89.67
2023-05-06T01:53:25.134Z,89.57
2023-05-06T01:54:25.462Z,89.37
2023-05-06T01:55:25.776Z,89.57
2023-05-06T01:56:26.133Z,89.67
2023-05-06T01:57:26.288Z,89.67
2023-05-06T01:58:26.620Z,89.47
2023-05-06T01:59:27.959Z,89.47
2023-05-06T02:00:27.232Z,89.37
2023-05-06T02:01:27.516Z,89.26
2023-05-06T02:02:27.931Z,89.17
2023-05-06T02:03:28.657Z,89.12
2023-05-06T02:04:28.427Z,89.12
2023-05-06T02:05:28.650Z,89.17
2023-05-06T02:06:28.886Z,89.26
2023-05-06T02:07:29.156Z,89.37
2023-05-06T02:08:29.462Z,89.37
2023-05-06T02:09:29.763Z,89.47
2023-05-06T02:10:30.122Z,89.47
2023-05-06T02:11:30.408Z,89.57
2023-05-06T02:12:30.931Z,89.57
2023-05-06T02:13:31.020Z,89.57
2023-05-06T02:14:31.384Z,89.47
2023-05-06T02:15:31.609Z,89.47
2023-05-06T02:16:32.051Z,89.57
2023-05-06T02:17:32.217Z,89.37
2023-05-06T02:18:32.500Z,89.17
2023-05-06T02:19:32.769Z,89.17
2023-05-06T02:20:33.052Z,89.17
2023-05-06T02:21:33.266Z,88.96
2023-05-06T02:22:33.587Z,88.76
2023-05-06T02:23:34.018Z,88.56
2023-05-06T02:24:34.174Z,88.56
2023-05-06T02:25:34.478Z,88.76
2023-05-06T02:26:34.794Z,88.86
2023-05-06T02:27:35.563Z,88.76
2023-05-06T02:28:35.786Z,88.76
2023-05-06T02:29:35.634Z,88.90
2023-05-06T02:30:35.990Z,89.11
2023-05-06T02:31:36.216Z,89.11
2023-05-06T02:32:36.580Z,88.90
2023-05-06T02:33:36.676Z,89.01
2023-05-06T02:34:36.981Z,89.21
2023-05-06T02:35:37.255Z,89.51
2023-05-06T02:36:37.542Z,89.41
2023-05-06T02:37:37.897Z,89.41
2023-05-06T02:38:38.180Z,89.21
2023-05-06T02:39:38.619Z,89.21
2023-05-06T02:40:38.768Z,89.11
2023-05-06T02:41:39.131Z,89.11
2023-05-06T02:42:39.322Z,89.11
2023-05-06T02:43:39.598Z,89.01
2023-05-06T02:44:39.925Z,89.11
2023-05-06T02:45:40.275Z,89.21
2023-05-06T02:46:40.547Z,89.21
2023-05-06T02:47:40.936Z,89.11
2023-05-06T02:48:41.132Z,89.01
2023-05-06T02:49:41.349Z,89.01
2023-05-06T02:50:41.706Z,89.01
2023-05-06T02:51:42.004Z,89.01
2023-05-06T02:52:42.336Z,89.01
2023-05-06T02:53:42.571Z,88.90
2023-05-06T02:54:43.048Z,89.01
2023-05-06T02:55:43.169Z,89.11
2023-05-06T02:56:43.391Z,89.41
2023-05-06T02:57:43.966Z,89.61
2023-05-06T02:58:44.039Z,89.72
2023-05-06T02:59:44.437Z,90.02
2023-05-06T03:00:44.716Z,90.26
2023-05-06T03:01:44.946Z,90.47
2023-05-06T03:02:45.314Z,90.67
2023-05-06T03:03:45.773Z,90.77
2023-05-06T03:04:45.985Z,90.97
2023-05-06T03:05:46.252Z,91.08
2023-05-06T03:06:46.561Z,91.17
2023-05-06T03:07:46.879Z,91.08
2023-05-06T03:08:47.095Z,90.97
2023-05-06T03:09:47.577Z,91.08
2023-05-06T03:10:47.768Z,90.88
2023-05-06T03:11:48.086Z,90.57
2023-05-06T03:12:48.430Z,90.67
2023-05-06T03:13:48.696Z,90.77
2023-05-06T03:14:49.038Z,90.67
2023-05-06T03:15:49.281Z,90.57
2023-05-06T03:16:49.601Z,90.47
2023-05-06T03:17:49.880Z,90.36
2023-05-06T03:18:50.190Z,90.16
2023-05-06T03:19:50.459Z,90.06
2023-05-06T03:20:50.786Z,89.96
2023-05-06T03:21:51.046Z,89.96
2023-05-06T03:22:51.343Z,89.96
2023-05-06T03:23:51.676Z,89.76
2023-05-06T03:24:51.882Z,89.86
2023-05-06T03:25:52.146Z,89.86
2023-05-06T03:26:52.462Z,89.86
2023-05-06T03:27:52.775Z,89.76
2023-05-06T03:28:53.093Z,89.76
2023-05-06T03:29:53.432Z,89.96
2023-05-06T03:30:54.152Z,90.26
2023-05-06T03:31:54.200Z,90.26
2023-05-06T03:32:54.421Z,90.26
2023-05-06T03:33:54.615Z,90.16
2023-05-06T03:34:54.965Z,90.16
2023-05-06T03:35:55.294Z,89.96
2023-05-06T03:36:55.698Z,89.96
2023-05-06T03:37:55.864Z,89.86
2023-05-06T03:38:56.173Z,89.96
2023-05-06T03:39:56.481Z,90.20
2023-05-06T03:40:56.883Z,90.31
2023-05-06T03:41:57.095Z,90.41
2023-05-06T03:42:57.375Z,90.51
2023-05-06T03:43:57.685Z,90.71
2023-05-06T03:44:58.014Z,90.92
2023-05-06T03:45:58.376Z,91.06
2023-05-06T03:46:58.562Z,91.06
2023-05-06T03:47:59.032Z,91.06
2023-05-06T03:48:59.204Z,91.06
2023-05-06T03:49:59.383Z,91.47
2023-05-06T03:50:59.727Z,91.26
2023-05-06T03:51:59.957Z,91.26
2023-05-06T03:53:00.311Z,91.16
2023-05-06T03:54:00.482Z,91.26
2023-05-06T03:55:00.938Z,91.47
2023-05-06T03:56:01.152Z,91.67
2023-05-06T03:57:01.358Z,91.67
2023-05-06T03:58:01.588Z,91.67
2023-05-06T03:59:02.000Z,91.67
2023-05-06T04:00:02.193Z,91.77
2023-05-06T04:01:02.553Z,92.22
2023-05-06T04:02:02.912Z,92.42
2023-05-06T04:03:03.068Z,92.12
2023-05-06T04:04:03.329Z,92.22
2023-05-06T04:05:03.744Z,92.32
2023-05-06T04:06:03.777Z,92.32
2023-05-06T04:07:04.093Z,92.42
2023-05-06T04:08:04.516Z,92.52
2023-05-06T04:09:04.861Z,92.63
2023-05-06T04:10:05.022Z,92.63
2023-05-06T04:11:05.350Z,92.52
2023-05-06T04:12:05.668Z,92.48
2023-05-06T04:13:06.056Z,92.38
2023-05-06T04:14:06.264Z,92.38
2023-05-06T04:15:06.651Z,92.28
2023-05-06T04:16:06.886Z,92.18
2023-05-06T04:17:07.200Z,91.97
2023-05-06T04:18:07.471Z,91.87
2023-05-06T04:19:07.810Z,91.87
2023-05-06T04:20:07.989Z,91.87
2023-05-06T04:21:08.219Z,91.97
2023-05-06T04:22:08.399Z,92.18
2023-05-06T04:23:08.804Z,92.32
2023-05-06T04:24:09.029Z,92.42
2023-05-06T04:25:09.703Z,92.52
2023-05-06T04:26:09.602Z,92.52
2023-05-06T04:27:09.921Z,92.52
2023-05-06T04:28:10.277Z,92.63
2023-05-06T04:29:10.665Z,92.52
2023-05-06T04:30:10.899Z,92.72
2023-05-06T04:31:11.220Z,92.68
2023-05-06T04:32:11.384Z,92.68
2023-05-06T04:33:11.787Z,92.68
2023-05-06T04:34:12.021Z,92.68
2023-05-06T04:35:12.469Z,92.79
2023-05-06T04:36:12.558Z,92.79
2023-05-06T04:37:12.906Z,92.89
2023-05-06T04:38:13.165Z,92.99
2023-05-06T04:39:13.385Z,93.40
2023-05-06T04:40:13.700Z,93.64
2023-05-06T04:41:14.015Z,93.74
2023-05-06T04:42:14.184Z,93.84
2023-05-06T04:43:14.516Z,94.05
2023-05-06T04:44:14.715Z,94.25
2023-05-06T04:45:15.028Z,94.25
2023-05-06T04:46:15.524Z,94.45
2023-05-06T04:47:15.797Z,94.66
2023-05-06T04:48:15.987Z,94.86
2023-05-06T04:49:16.381Z,94.86
2023-05-06T04:50:16.673Z,94.66
2023-05-06T04:51:16.943Z,94.66
2023-05-06T04:52:17.219Z,94.56
2023-05-06T04:53:17.405Z,94.45
2023-05-06T04:54:18.167Z,94.45
2023-05-06T04:55:18.132Z,94.35
2023-05-06T04:56:18.188Z,94.21
2023-05-06T04:57:18.450Z,93.90
2023-05-06T04:58:18.663Z,93.80
2023-05-06T04:59:19.130Z,93.60
2023-05-06T05:00:19.269Z,93.49
2023-05-06T05:01:19.639Z,93.29
2023-05-06T05:02:19.949Z,93.09
2023-05-06T05:03:20.416Z,92.94
2023-05-06T05:04:20.616Z,92.84
2023-05-06T05:05:20.848Z,92.79
2023-05-06T05:06:21.160Z,92.74
2023-05-06T05:07:21.393Z,92.74
2023-05-06T05:08:21.595Z,92.64
2023-05-06T05:09:21.969Z,92.54
2023-05-06T05:10:23.217Z,92.44
2023-05-06T05:11:22.452Z,92.44
2023-05-06T05:12:22.778Z,92.33
2023-05-06T05:13:23.235Z,92.33
2023-05-06T05:14:23.374Z,92.33
2023-05-06T05:15:23.902Z,92.09
2023-05-06T05:16:24.163Z,91.89
2023-05-06T05:17:24.286Z,91.48
2023-05-06T05:18:24.474Z,91.52
2023-05-06T05:19:24.820Z,91.52
2023-05-06T05:20:25.199Z,91.63
2023-05-06T05:21:25.466Z,91.73
2023-05-06T05:22:25.693Z,91.83
2023-05-06T05:23:25.899Z,91.83
2023-05-06T05:24:26.225Z,91.83
2023-05-06T05:25:26.496Z,91.78
2023-05-06T05:26:26.846Z,91.48
2023-05-06T05:27:27.259Z,91.17
2023-05-06T05:28:27.485Z,91.08
2023-05-06T05:29:27.663Z,90.97
2023-05-06T05:30:28.052Z,90.88
2023-05-06T05:31:28.306Z,90.62
2023-05-06T05:32:28.727Z,90.42
2023-05-06T05:33:28.813Z,90.12
2023-05-06T05:34:29.012Z,90.02
2023-05-06T05:35:29.411Z,90.02
2023-05-06T05:36:29.611Z,89.81
2023-05-06T05:37:29.890Z,89.81
2023-05-06T05:38:30.097Z,89.61
2023-05-06T05:39:30.317Z,89.51
2023-05-06T05:40:30.809Z,89.21
2023-05-06T05:41:30.997Z,89.17
2023-05-06T05:42:31.204Z,88.86
2023-05-06T05:43:31.552Z,88.35
2023-05-06T05:44:31.759Z,88.05
2023-05-06T05:45:32.074Z,87.95
2023-05-06T05:46:32.468Z,87.95
2023-05-06T05:47:32.729Z,87.95
2023-05-06T05:48:32.946Z,87.60
2023-05-06T05:49:33.329Z,87.40
2023-05-06T05:50:33.457Z,87.40
2023-05-06T05:51:33.803Z,87.30
2023-05-06T05:52:34.255Z,87.20
2023-05-06T05:53:34.429Z,87.00
2023-05-06T05:54:34.787Z,86.79
2023-05-06T05:55:35.026Z,87.10
2023-05-06T05:56:35.239Z,87.00
2023-05-06T05:57:35.595Z,87.00
2023-05-06T05:58:35.913Z,87.00
2023-05-06T05:59:36.283Z,86.90
2023-05-06T06:00:36.465Z,86.59
2023-05-06T06:01:36.827Z,86.59
2023-05-06T06:02:37.209Z,86.45
2023-05-06T06:03:37.502Z,86.25
2023-05-06T06:04:37.851Z,86.05
2023-05-06T06:05:38.014Z,85.84
2023-05-06T06:06:38.347Z,86.15
2023-05-06T06:07:38.742Z,86.10
2023-05-06T06:08:38.961Z,86.00
2023-05-06T06:09:39.297Z,85.80
2023-05-06T06:10:39.599Z,85.56
2023-05-06T06:11:39.801Z,85.76
2023-05-06T06:12:40.080Z,85.46
2023-05-06T06:13:40.265Z,85.36
2023-05-06T06:14:40.578Z,84.95
2023-05-06T06:15:40.817Z,84.61
2023-05-06T06:16:41.223Z,84.00
2023-05-06T06:17:41.629Z,83.70
2023-05-06T06:18:41.700Z,83.40
2023-05-06T06:19:42.853Z,83.40
2023-05-06T06:20:42.245Z,83.50
2023-05-06T06:21:42.482Z,83.46
2023-05-06T06:22:42.700Z,83.26
2023-05-06T06:23:43.057Z,82.75
2023-05-06T06:24:43.288Z,82.35
2023-05-06T06:25:43.507Z,82.04
2023-05-06T06:26:43.943Z,81.84
2023-05-06T06:27:44.148Z,81.64
2023-05-06T06:28:44.567Z,81.44
2023-05-06T06:29:44.860Z,81.44
2023-05-06T06:30:45.100Z,81.34
2023-05-06T06:31:45.372Z,80.90
2023-05-06T06:32:45.693Z,80.49
2023-05-06T06:33:45.914Z,80.99
2023-05-06T06:34:46.109Z,81.10
2023-05-06T06:35:46.562Z,80.99
2023-05-06T06:36:46.630Z,80.90
2023-05-06T06:37:47.003Z,80.69
2023-05-06T06:38:47.259Z,80.45
2023-05-06T06:39:47.510Z,80.55
2023-05-06T06:40:47.760Z,80.55
2023-05-06T06:41:47.973Z,80.25
2023-05-06T06:42:48.345Z,80.15
2023-05-06T06:43:48.607Z,80.55
2023-05-06T06:44:48.818Z,80.35
2023-05-06T06:45:49.205Z,80.21
2023-05-06T06:46:49.393Z,80.35
2023-05-06T06:47:49.706Z,80.62
2023-05-06T06:48:49.952Z,80.51
2023-05-06T06:49:50.248Z,80.62
2023-05-06T06:50:50.521Z,80.41
2023-05-06T06:51:50.775Z,80.41
2023-05-06T06:52:51.000Z,80.18
2023-05-06T06:53:51.217Z,79.97
2023-05-06T06:54:51.570Z,79.67
2023-05-06T06:55:51.755Z,79.57
2023-05-06T06:56:52.157Z,79.47
2023-05-06T06:57:52.325Z,79.67
2023-05-06T06:58:53.429Z,79.47
2023-05-06T06:59:52.791Z,79.27
2023-05-06T07:00:53.195Z,79.16
2023-05-06T07:01:53.470Z,79.47
2023-05-06T07:02:53.701Z,79.77
2023-05-06T07:03:53.977Z,79.67
2023-05-06T07:04:54.189Z,79.47
2023-05-06T07:05:54.476Z,79.47
2023-05-06T07:06:54.726Z,79.47
2023-05-06T07:07:54.938Z,79.27
2023-05-06T07:08:55.273Z,79.57
2023-05-06T07:09:55.603Z,79.36
2023-05-06T07:10:56.039Z,79.36
2023-05-06T07:11:56.208Z,79.57
2023-05-06T07:12:56.639Z,80.11
2023-05-06T07:13:56.794Z,80.07
2023-05-06T07:14:57.109Z,79.77
2023-05-06T07:15:57.534Z,79.53
2023-05-06T07:16:57.767Z,78.83
2023-05-06T07:17:59.031Z,78.32
2023-05-06T07:18:58.363Z,79.27
2023-05-06T07:19:58.560Z,79.13
2023-05-06T07:20:58.930Z,78.92
2023-05-06T07:21:59.197Z,78.92
2023-05-06T07:22:59.695Z,78.72
2023-05-06T07:23:59.735Z,78.52
2023-05-06T07:24:59.959Z,78.42
2023-05-06T07:26:01.167Z,78.22
2023-05-06T07:27:00.546Z,77.68
2023-05-06T07:28:00.769Z,77.48
2023-05-06T07:29:01.178Z,77.58
2023-05-06T07:30:01.429Z,77.08
2023-05-06T07:31:01.704Z,77.17
2023-05-06T07:32:01.937Z,76.74
2023-05-06T07:33:02.185Z,76.34
2023-05-06T07:34:02.505Z,76.14
2023-05-06T07:35:02.748Z,75.73
2023-05-06T07:36:03.087Z,75.59
2023-05-06T07:37:03.277Z,75.39
2023-05-06T07:38:03.474Z,75.09
2023-05-06T07:39:03.825Z,74.45
2023-05-06T07:40:04.093Z,74.38
2023-05-06T07:41:04.308Z,74.29
2023-05-06T07:42:05.499Z,74.15
2023-05-06T07:43:04.868Z,73.85
2023-05-06T07:44:05.224Z,73.04
2023-05-06T07:45:05.522Z,73.24
2023-05-06T07:46:05.758Z,72.97
2023-05-06T07:47:07.096Z,73.28
2023-05-06T07:48:06.352Z,73.14
2023-05-06T07:49:06.669Z,73.04
2023-05-06T07:50:06.862Z,72.94
2023-05-06T07:51:07.064Z,72.94
2023-05-06T07:52:07.368Z,72.50
2023-05-06T07:53:07.737Z,72.20
2023-05-06T07:54:07.946Z,70.89
2023-05-06T07:55:08.704Z,70.19
2023-05-06T07:56:08.560Z,70.16
2023-05-06T07:57:08.914Z,70.16
2023-05-06T07:58:09.243Z,69.92
2023-05-06T07:59:09.647Z,69.29
2023-05-06T08:00:09.917Z,68.99
2023-05-06T08:01:10.136Z,68.49
2023-05-06T08:02:10.354Z,68.88
2023-05-06T08:03:10.689Z,68.18
2023-05-06T08:04:10.953Z,67.95
2023-05-06T08:05:11.684Z,67.95
2023-05-06T08:06:11.331Z,67.05
2023-05-06T08:07:11.676Z,67.05
2023-05-06T08:08:12.064Z,67.14
2023-05-06T08:09:16.998Z,67.11
2023-05-06T08:10:13.565Z,66.31
2023-05-06T08:11:12.802Z,65.88
2023-05-06T08:12:13.118Z,65.15
2023-05-06T08:13:13.626Z,64.95
2023-05-06T08:14:13.684Z,64.75
2023-05-06T08:15:14.021Z,64.95
2023-05-06T08:16:14.508Z,65.15
2023-05-06T08:17:14.544Z,64.84
2023-05-06T08:18:22.272Z,65.08
2023-05-06T08:19:16.181Z,65.25
2023-05-06T08:20:15.453Z,64.92
2023-05-06T08:21:15.640Z,64.18
2023-05-06T08:22:16.046Z,63.12
2023-05-06T08:23:16.252Z,61.96
2023-05-06T08:24:16.500Z,60.03
2023-05-06T08:25:16.846Z,60.16
2023-05-06T08:26:17.230Z,60.24
2023-05-06T08:27:17.443Z,59.34
2023-05-06T08:28:17.782Z,58.94
2023-05-06T08:29:18.047Z,59.56
2023-05-06T08:30:18.342Z,59.34
2023-05-06T08:31:18.668Z,58.91
2023-05-06T08:32:19.057Z,58.94
2023-05-06T08:33:19.289Z,59.74
2023-05-06T08:34:19.496Z,59.31
2023-05-06T08:35:19.772Z,58.08
2023-05-06T08:36:20.091Z,58.08
2023-05-06T08:37:20.498Z,57.13
2023-05-06T08:38:20.802Z,56.01
2023-05-06T08:39:20.988Z,55.26
2023-05-06T08:40:22.029Z,54.13
2023-05-06T08:41:21.613Z,53.39
2023-05-06T08:42:21.963Z,52.19
2023-05-06T08:43:22.280Z,51.52
2023-05-06T08:44:22.582Z,53.04
2023-05-06T08:45:22.774Z,53.36
2023-05-06T08:46:23.199Z,54.08
2023-05-06T08:47:23.482Z,54.08
2023-05-06T08:48:23.656Z,53.46
2023-05-06T08:49:23.970Z,52.64
2023-05-06T08:50:24.530Z,53.16
2023-05-06T08:51:26.094Z,53.27
2023-05-06T08:52:24.790Z,52.92
2023-05-06T08:53:25.133Z,53.31
2023-05-06T08:54:25.446Z,52.92
2023-05-06T08:55:25.871Z,52.39
2023-05-06T08:56:26.016Z,52.99
2023-05-06T08:57:26.357Z,53.41
2023-05-06T08:58:26.676Z,53.81
2023-05-06T08:59:27.168Z,53.78
2023-05-06T09:00:27.672Z,53.16
2023-05-06T09:01:27.738Z,52.97
2023-05-06T09:02:28.079Z,53.24
2023-05-06T09:03:29.836Z,53.04
2023-05-06T09:04:28.451Z,52.74
2023-05-06T09:05:28.676Z,53.77
2023-05-06T09:06:29.014Z,54.36
2023-05-06T09:07:29.281Z,55.41
2023-05-06T09:08:29.694Z,57.46
2023-05-06T09:09:30.042Z,58.09
2023-05-06T09:10:30.311Z,57.69
2023-05-06T09:11:30.470Z,58.22
2023-05-06T09:12:30.801Z,58.02
2023-05-06T09:13:31.155Z,57.52
2023-05-06T09:14:31.474Z,57.79
2023-05-06T09:15:31.898Z,56.14
2023-05-06T09:16:32.110Z,55.32
2023-05-06T09:17:32.452Z,54.57
2023-05-06T09:18:32.837Z,54.04
2023-05-06T09:19:32.921Z,54.21
2023-05-06T09:20:33.289Z,53.39
2023-05-06T09:21:33.614Z,53.39
2023-05-06T09:22:33.801Z,52.54
2023-05-06T09:23:34.120Z,51.30
2023-05-06T09:24:34.425Z,50.28
2023-05-06T09:25:34.723Z,49.98
2023-05-06T09:26:35.161Z,49.54
2023-05-06T09:27:35.408Z,48.00
2023-05-06T09:28:35.621Z,47.09
2023-05-06T09:29:35.916Z,46.67
2023-05-06T09:30:36.285Z,45.50
2023-05-06T09:31:36.585Z,46.09
2023-05-06T09:32:39.861Z,45.60
2023-05-06T09:33:37.318Z,45.30
2023-05-06T09:34:37.431Z,44.78
2023-05-06T09:35:37.732Z,45.10
2023-05-06T09:36:38.059Z,46.36
2023-05-06T09:37:38.304Z,47.17
2023-05-06T09:38:38.556Z,46.88
2023-05-06T09:39:38.873Z,47.17
2023-05-06T09:40:39.185Z,48.10
2023-05-06T09:41:39.457Z,47.75
2023-05-06T09:42:39.757Z,46.71
2023-05-06T09:43:40.087Z,46.09
2023-05-06T09:44:40.432Z,45.16
2023-05-06T09:45:40.742Z,44.76
2023-05-06T09:46:41.239Z,45.60
2023-05-06T09:47:41.445Z,45.97
2023-05-06T09:48:41.718Z,45.40
2023-05-06T09:49:42.064Z,46.31
2023-05-06T09:50:42.413Z,45.12
2023-05-06T09:51:42.608Z,45.23
2023-05-06T09:52:43.116Z,45.32
2023-05-06T09:53:43.182Z,45.10
2023-05-06T09:54:43.489Z,44.60
2023-05-06T09:55:43.841Z,44.63
2023-05-06T09:56:44.034Z,45.94
2023-05-06T09:57:44.330Z,46.34
2023-05-06T09:58:44.735Z,47.08
2023-05-06T09:59:44.943Z,48.79
2023-05-06T10:00:45.281Z,49.88
2023-05-06T10:01:45.770Z,49.21
2023-05-06T10:02:46.055Z,48.34
2023-05-06T10:03:46.622Z,48.96
2023-05-06T10:04:46.786Z,48.79
2023-05-06T10:05:46.812Z,47.03
2023-05-06T10:06:47.173Z,45.57
2023-05-06T10:07:47.384Z,44.98
2023-05-06T10:08:47.750Z,44.89
2023-05-06T10:09:47.935Z,44.78
2023-05-06T10:10:48.309Z,44.59
2023-05-06T10:11:48.553Z,44.67
2023-05-06T10:12:48.928Z,43.95
2023-05-06T10:13:49.195Z,43.93
2023-05-06T10:14:49.441Z,43.12
2023-05-06T10:15:49.734Z,42.48
2023-05-06T10:16:50.071Z,41.97
2023-05-06T10:17:50.137Z,42.80
2023-05-06T10:18:50.356Z,42.80
2023-05-06T10:19:50.661Z,41.99
2023-05-06T10:20:50.826Z,42.90
2023-05-06T10:21:51.167Z,42.16
2023-05-06T10:22:51.495Z,41.53
2023-05-06T10:23:51.769Z,40.62
2023-05-06T10:24:51.966Z,40.09
2023-05-06T10:25:52.305Z,39.60
2023-05-06T10:26:52.524Z,39.28
2023-05-06T10:27:52.755Z,38.79
2023-05-06T10:28:53.090Z,39.50
2023-05-06T10:29:53.343Z,39.58
2023-05-06T10:30:53.957Z,39.09
2023-05-06T10:31:54.067Z,39.07
2023-05-06T10:32:54.227Z,39.28
2023-05-06T10:33:54.547Z,38.99
2023-05-06T10:34:54.755Z,38.79
2023-05-06T10:35:55.116Z,38.89
2023-05-06T10:36:56.285Z,38.79
2023-05-06T10:37:55.642Z,39.12
2023-05-06T10:38:56.189Z,39.64
2023-05-06T10:39:56.247Z,39.54
2023-05-06T10:40:56.530Z,39.76
2023-05-06T10:41:56.814Z,40.80
2023-05-06T10:42:57.062Z,41.52
2023-05-06T10:43:57.527Z,41.20
2023-05-06T10:44:57.787Z,41.00
2023-05-06T10:45:57.970Z,40.80
2023-05-06T10:46:58.335Z,41.30
2023-05-06T10:47:58.569Z,40.58
2023-05-06T10:48:58.868Z,40.37
2023-05-06T10:49:59.120Z,39.73
2023-05-06T10:50:59.476Z,39.01
2023-05-06T10:51:59.644Z,38.51
2023-05-06T10:53:00.005Z,38.42
2023-05-06T10:54:00.206Z,39.03
2023-05-06T10:55:00.597Z,39.25
2023-05-06T10:56:00.914Z,39.84
2023-05-06T10:57:01.144Z,39.64
2023-05-06T10:58:01.646Z,39.31
2023-05-06T10:59:01.676Z,38.91
2023-05-06T11:00:01.947Z,38.71
2023-05-06T11:01:02.221Z,39.17
2023-05-06T11:02:02.555Z,41.20
2023-05-06T11:03:02.887Z,40.39
2023-05-06T11:04:02.988Z,39.87
2023-05-06T11:05:03.428Z,39.54
2023-05-06T11:06:03.575Z,38.49
2023-05-06T11:07:04.146Z,39.12
2023-05-06T11:08:04.145Z,39.92
2023-05-06T11:09:04.498Z,39.54
2023-05-06T11:10:04.742Z,38.71
2023-05-06T11:11:05.026Z,38.28
2023-05-06T11:12:05.166Z,37.20
2023-05-06T11:13:05.553Z,37.89
2023-05-06T11:14:05.810Z,37.57
2023-05-06T11:15:06.103Z,37.48
2023-05-06T11:16:06.305Z,37.99
2023-05-06T11:17:06.741Z,37.89
2023-05-06T11:18:07.028Z,38.42
2023-05-06T11:19:07.157Z,39.15
2023-05-06T11:20:07.535Z,39.34
2023-05-06T11:21:07.772Z,39.03
2023-05-06T11:22:07.996Z,38.73
2023-05-06T11:23:08.513Z,39.95
2023-05-06T11:24:08.651Z,40.25
2023-05-06T11:25:08.807Z,39.65
2023-05-06T11:26:09.143Z,39.40
2023-05-06T11:27:09.492Z,40.55
2023-05-06T11:28:09.833Z,42.52
2023-05-06T11:29:10.120Z,43.84
2023-05-06T11:30:10.461Z,43.52
2023-05-06T11:31:10.662Z,43.30
2023-05-06T11:32:10.873Z,41.85
2023-05-06T11:33:11.247Z,41.53
2023-05-06T11:34:11.480Z,41.52
2023-05-06T11:35:11.708Z,40.69
2023-05-06T11:36:11.902Z,40.50
2023-05-06T11:37:12.274Z,41.85
2023-05-06T11:38:12.519Z,42.57
2023-05-06T11:39:12.739Z,43.20
2023-05-06T11:40:13.115Z,43.48
2023-05-06T11:41:13.272Z,43.26
2023-05-06T11:42:13.589Z,42.66
2023-05-06T11:43:13.995Z,42.14
2023-05-06T11:44:14.193Z,41.63
2023-05-06T11:45:14.420Z,41.73
2023-05-06T11:46:14.752Z,41.22
2023-05-06T11:47:14.979Z,40.84
2023-05-06T11:48:15.214Z,41.14
2023-05-06T11:49:15.652Z,41.28
2023-05-06T11:50:15.912Z,42.50
2023-05-06T11:51:16.292Z,42.60
2023-05-06T11:52:16.432Z,42.60
2023-05-06T11:53:16.668Z,42.63
2023-05-06T11:54:16.896Z,43.26
2023-05-06T11:55:17.190Z,43.85
2023-05-06T11:56:17.543Z,44.27
2023-05-06T11:57:17.917Z,44.59
2023-05-06T11:58:18.132Z,44.92
2023-05-06T11:59:18.527Z,44.92
2023-05-06T12:00:18.668Z,45.23
2023-05-06T12:01:19.041Z,45.43
2023-05-06T12:02:19.338Z,45.01
2023-05-06T12:03:19.631Z,44.64
2023-05-06T12:04:19.846Z,44.84
2023-05-06T12:05:20.048Z,44.93
2023-05-06T12:06:21.053Z,45.26
2023-05-06T12:07:20.645Z,45.26
2023-05-06T12:08:27.275Z,45.26
2023-05-06T12:09:22.123Z,45.14
2023-05-06T12:10:21.535Z,45.14
2023-05-06T12:11:21.745Z,44.84
2023-05-06T12:12:22.091Z,45.48
2023-05-06T12:13:22.441Z,46.30
2023-05-06T12:14:22.613Z,46.49
2023-05-06T12:15:23.091Z,46.20
2023-05-06T12:16:23.267Z,45.87
2023-05-06T12:17:23.503Z,46.59
2023-05-06T12:18:23.654Z,46.59
2023-05-06T12:19:24.067Z,46.17
2023-05-06T12:20:24.195Z,46.15
2023-05-06T12:21:24.517Z,46.35
2023-05-06T12:22:24.962Z,45.93
2023-05-06T12:23:25.140Z,45.71
2023-05-06T12:24:25.356Z,44.62
2023-05-06T12:25:25.786Z,44.81
2023-05-06T12:26:26.006Z,44.79
2023-05-06T12:27:26.343Z,44.70
2023-05-06T12:28:26.680Z,44.79
2023-05-06T12:29:27.061Z,45.29
2023-05-06T12:30:27.176Z,44.81
2023-05-06T12:31:27.558Z,44.92
2023-05-06T12:32:27.910Z,45.11
2023-05-06T12:33:28.094Z,45.09
2023-05-06T12:34:28.397Z,44.92
2023-05-06T12:35:28.809Z,45.73
2023-05-06T12:36:29.019Z,46.49
2023-05-06T12:37:29.284Z,47.33
2023-05-06T12:38:29.477Z,48.58
2023-05-06T12:39:29.813Z,48.97
2023-05-06T12:40:30.144Z,48.35
2023-05-06T12:41:30.594Z,48.55
2023-05-06T12:42:30.796Z,48.33
2023-05-06T12:43:31.270Z,47.79
2023-05-06T12:44:31.274Z,47.27
2023-05-06T12:45:31.808Z,46.35
2023-05-06T12:46:31.901Z,45.73
2023-05-06T12:47:32.321Z,45.23
2023-05-06T12:48:32.527Z,44.84
2023-05-06T12:49:32.845Z,44.92
2023-05-06T12:50:33.091Z,45.36
2023-05-06T12:51:33.445Z,45.78
2023-05-06T12:52:33.742Z,45.75
2023-05-06T12:53:33.886Z,46.08
2023-05-06T12:54:34.184Z,46.47
2023-05-06T12:55:34.602Z,46.87
2023-05-06T12:56:34.867Z,46.97